Time;durP1;ratioP1;P1;durP2;ratioP2;P2;SDS_P1;SDS_P2;PMS_P1;PMS_P2;Temp;Humidity;BMP_temperature;BMP_pressure;BME280_temperature;BME280_humidity;BME280_pressure;Samples;Min_cycle;Max_cycle;Signal;HPM_P1;HPM_P2
2024/03/18 00:00:34;;;;;;;8.02;4.05;;;-1.30;99.90;;;-3.01;86.33;101973.38;4943858;28;20041;-80
2024/03/18 00:02:59;;;;;;;7.05;4.30;;;-1.40;99.90;;;-3.04;86.55;101956.97;4943596;28;20794;-80
2024/03/18 00:05:33;;;;;;;6.97;4.13;;;-1.40;99.90;;;-3.03;85.95;101969.88;4931653;28;20048;-79
2024/03/18 00:07:59;;;;;;;5.82;3.45;;;-1.40;99.90;;;-3.03;86.25;101971.59;4914702;28;20082;-80
2024/03/18 00:10:25;;;;;;;8.95;3.90;;;-1.40;99.90;;;-3.03;86.44;101963.84;4962120;28;20035;-80
2024/03/18 00:12:51;;;;;;;8.55;4.00;;;-1.40;99.90;;;-3.03;87.15;101964.72;4939914;28;20042;-80
2024/03/18 00:15:17;;;;;;;8.88;4.18;;;-1.40;99.90;;;-3.03;86.62;101959.56;4949380;28;20508;-80
2024/03/18 00:17:47;;;;;;;7.88;3.78;;;-1.40;99.90;;;-3.02;86.83;101960.44;4928844;28;20053;-80
2024/03/18 00:20:13;;;;;;;7.43;4.32;;;-1.40;99.90;;;-3.02;87.15;101960.44;4941558;28;20505;-80
2024/03/18 00:22:43;;;;;;;10.98;4.15;;;-1.40;99.90;;;-3.01;86.72;101959.63;4930432;28;20053;-79
2024/03/18 00:25:13;;;;;;;8.30;4.07;;;-1.40;99.90;;;-3.00;87.05;101964.81;4931265;28;20038;-80
2024/03/18 00:27:39;;;;;;;9.35;4.13;;;-1.40;99.90;;;-2.99;87.49;101963.97;4903637;28;20137;-80
2024/03/18 00:30:12;;;;;;;7.93;4.05;;;-1.50;99.90;;;-3.00;87.71;101961.34;4924655;28;20653;-80
2024/03/18 00:32:43;;;;;;;10.10;5.40;;;-1.30;99.90;;;-2.97;87.80;101964.03;4945923;28;20030;-80
2024/03/18 00:35:09;;;;;;;10.75;5.45;;;-1.30;99.90;;;-2.96;87.72;101970.91;4939129;28;20065;-80
2024/03/18 00:37:37;;;;;;;10.57;5.22;;;-1.30;99.90;;;-2.94;87.62;101975.31;4922225;28;20046;-80
2024/03/18 00:40:03;;;;;;;10.10;5.22;;;-1.30;99.90;;;-2.96;88.20;101969.25;4940145;28;20038;-80
2024/03/18 00:42:34;;;;;;;10.13;5.22;;;-1.30;99.90;;;-2.95;87.86;101967.53;4921931;28;20049;-80
2024/03/18 00:45:00;;;;;;;14.20;6.07;;;-1.30;99.90;;;-2.95;88.23;101962.38;4945938;28;20133;-80
2024/03/18 00:47:27;;;;;;;10.93;6.22;;;-1.30;99.90;;;-2.92;88.25;101967.59;4959886;28;20149;-80
2024/03/18 00:49:52;;;;;;;11.38;5.65;;;-1.20;99.90;;;-2.89;88.37;101957.41;4905909;28;20507;-80
2024/03/18 00:52:18;;;;;;;12.65;5.82;;;-1.20;99.90;;;-2.88;88.68;101960.00;4909204;28;20037;-80
2024/03/18 00:54:44;;;;;;;10.98;5.40;;;-1.30;99.90;;;-2.89;88.28;101962.56;4945043;28;20057;-80
2024/03/18 00:57:19;;;;;;;10.80;5.95;;;-1.20;99.90;;;-2.91;88.31;101956.47;4915741;28;20480;-80
2024/03/18 00:59:45;;;;;;;10.00;4.95;;;-1.30;99.90;;;-2.95;88.47;101955.50;4915001;28;20101;-80
2024/03/18 01:02:11;;;;;;;9.80;4.82;;;-1.30;99.90;;;-3.00;88.57;101951.94;4952000;28;20124;-80
2024/03/18 01:04:39;;;;;;;7.22;4.30;;;-1.30;99.90;;;-3.06;88.48;101944.03;4950424;28;20686;-80
2024/03/18 01:07:08;;;;;;;12.90;4.25;;;-1.40;99.90;;;-3.12;88.99;101934.41;4972777;28;20418;-80
2024/03/18 01:09:34;;;;;;;15.75;3.58;;;-1.40;99.90;;;-3.14;88.80;101932.63;4907338;28;20034;-80
2024/03/18 01:12:00;;;;;;;9.20;3.92;;;-1.50;99.90;;;-3.18;88.02;101936.81;4931548;28;20052;-81
2024/03/18 01:14:26;;;;;;;6.90;4.30;;;-1.50;99.90;;;-3.18;88.25;101930.78;4921711;28;20030;-80
2024/03/18 01:16:52;;;;;;;8.43;4.07;;;-1.50;99.90;;;-3.18;88.90;101931.66;4957732;28;20042;-80
2024/03/18 01:19:23;;;;;;;8.45;3.90;;;-1.50;99.90;;;-3.17;88.91;101922.25;4976844;28;20404;-81
2024/03/18 01:21:49;;;;;;;11.73;3.80;;;-1.50;99.90;;;-3.17;88.86;101925.69;4913281;28;20120;-80
2024/03/18 01:24:15;;;;;;;6.32;3.42;;;-1.50;99.90;;;-3.13;88.81;101922.38;4945251;28;20150;-81
2024/03/18 01:26:41;;;;;;;9.35;3.50;;;-1.40;99.90;;;-3.05;89.06;101921.69;4948453;28;20052;-79
2024/03/18 01:29:07;;;;;;;6.60;3.42;;;-1.40;99.90;;;-2.97;89.41;101917.66;4910405;28;20088;-80
2024/03/18 01:31:38;;;;;;;5.95;3.38;;;-1.30;99.90;;;-2.91;89.52;101928.13;4950100;28;20038;-80
2024/03/18 01:34:04;;;;;;;8.40;3.17;;;-1.30;99.90;;;-2.86;89.86;101923.09;4944741;28;20494;-81
2024/03/18 01:36:32;;;;;;;5.50;3.63;;;-1.20;99.90;;;-2.86;89.85;101925.69;4933164;28;20055;-80
2024/03/18 01:38:58;;;;;;;5.43;3.08;;;-1.20;99.90;;;-2.91;89.62;101918.69;4921262;28;20053;-80
2024/03/18 01:41:24;;;;;;;5.53;3.30;;;-1.30;99.90;;;-2.95;89.56;101911.69;4926692;28;20034;-80
2024/03/18 01:43:57;;;;;;;7.55;3.67;;;-1.30;99.90;;;-2.98;89.75;101916.78;4930251;28;20077;-80
2024/03/18 01:46:23;;;;;;;10.70;4.18;;;-1.30;99.90;;;-3.00;89.23;101909.81;4937593;28;20033;-80
2024/03/18 01:48:49;;;;;;;6.70;4.13;;;-1.30;99.90;;;-3.01;89.42;101910.66;4942515;28;20034;-80
2024/03/18 01:51:14;;;;;;;10.23;4.15;;;-1.40;99.90;;;-3.03;89.94;101922.63;4898254;28;20106;-80
2024/03/18 01:53:46;;;;;;;20.33;5.65;;;-1.40;99.90;;;-3.08;89.26;101919.06;4921654;28;20026;-80
2024/03/18 01:56:12;;;;;;;10.23;5.03;;;-1.40;99.90;;;-3.11;89.68;101912.97;4936019;28;20039;-79
2024/03/18 01:58:38;;;;;;;9.07;4.35;;;-1.50;99.90;;;-3.16;89.16;101914.53;4948379;28;20042;-81
2024/03/18 02:01:06;;;;;;;8.38;3.97;;;-1.50;99.90;;;-3.30;89.06;101909.00;4940511;28;20342;-80
2024/03/18 02:03:32;;;;;;;11.48;4.75;;;-1.60;99.90;;;-3.43;88.91;101908.59;4937876;28;20041;-79
2024/03/18 02:06:06;;;;;;;7.93;4.35;;;-1.70;99.90;;;-3.53;88.46;101905.72;4949743;28;20050;-80
2024/03/18 02:08:33;;;;;;;7.57;3.85;;;-1.80;99.90;;;-3.60;88.48;101897.78;4937312;28;20045;-80
2024/03/18 02:10:59;;;;;;;6.97;3.80;;;-1.90;99.90;;;-3.62;88.30;101899.44;4910343;28;20027;-80
2024/03/18 02:13:30;;;;;;;8.18;4.18;;;-1.90;99.90;;;-3.65;88.43;101900.22;4923408;28;20041;-80
2024/03/18 02:15:56;;;;;;;10.68;4.20;;;-1.90;99.90;;;-3.67;88.27;101901.88;4957832;28;20589;-80
2024/03/18 02:18:22;;;;;;;9.15;4.25;;;-1.90;99.90;;;-3.65;88.43;101899.34;4947575;28;20060;-80
2024/03/18 02:20:47;;;;;;;8.77;4.72;;;-1.90;99.90;;;-3.63;88.82;101887.38;4921754;28;20045;-81
2024/03/18 02:23:14;;;;;;;8.20;4.18;;;-1.90;99.90;;;-3.61;88.94;101885.72;4913405;28;20038;-80
2024/03/18 02:25:41;;;;;;;8.60;4.45;;;-1.90;99.90;;;-3.59;88.96;101884.06;4935124;28;20121;-80
2024/03/18 02:28:14;;;;;;;7.78;4.47;;;-1.90;99.90;;;-3.58;88.99;101885.84;4937085;28;20512;-80
2024/03/18 02:30:40;;;;;;;5.05;3.28;;;-1.90;99.90;;;-3.59;88.95;101884.06;4920314;28;20045;-80
2024/03/18 02:33:06;;;;;;;10.75;4.15;;;-1.90;99.90;;;-3.60;89.00;101893.50;4954932;28;20474;-80
2024/03/18 02:35:32;;;;;;;6.88;3.60;;;-1.90;99.90;;;-3.60;89.42;101888.34;4908336;23;20049;-80
2024/03/18 02:38:05;;;;;;;6.32;3.03;;;-1.90;99.90;;;-3.61;89.45;101886.59;4847443;28;20168;-80
2024/03/18 02:40:31;;;;;;;6.13;2.95;;;-1.90;99.90;;;-3.64;89.86;101883.06;4881130;29;20074;-81
2024/03/18 02:42:56;;;;;;;5.50;2.78;;;-1.90;99.90;;;-3.64;89.41;101883.06;4868915;28;20043;-81
2024/03/18 02:45:22;;;;;;;5.30;2.85;;;-1.90;99.90;;;-3.68;89.73;101882.09;4843370;29;20040;-80
2024/03/18 02:47:48;;;;;;;6.05;2.92;;;-2.00;99.90;;;-3.74;89.50;101881.91;4846829;28;20043;-80
2024/03/18 02:50:19;;;;;;;3.90;2.50;;;-2.00;99.90;;;-3.81;89.11;101880.00;4846595;28;20476;-80
2024/03/18 02:52:46;;;;;;;5.63;3.08;;;-2.10;99.90;;;-3.88;89.00;101883.22;4901869;28;20032;-80
2024/03/18 02:55:12;;;;;;;7.85;3.20;;;-2.20;99.90;;;-3.96;88.83;101877.81;4850247;28;20679;-80
2024/03/18 02:57:38;;;;;;;5.70;2.70;;;-2.30;99.90;;;-4.02;88.60;101880.19;4893012;28;20043;-81
2024/03/18 03:00:11;;;;;;;4.13;2.70;;;-2.30;99.90;;;-4.09;88.68;101876.53;4865810;28;20048;-80
2024/03/18 03:02:37;;;;;;;5.85;2.80;;;-2.40;99.90;;;-4.15;88.58;101871.19;4899579;28;20050;-80
2024/03/18 03:05:04;;;;;;;6.05;2.92;;;-2.40;99.90;;;-4.20;88.35;101867.63;4867438;29;20415;-80
2024/03/18 03:07:30;;;;;;;5.25;3.13;;;-2.50;99.90;;;-4.22;88.11;101876.97;4874724;29;20043;-81
2024/03/18 03:09:56;;;;;;;5.00;3.42;;;-2.50;99.90;;;-4.22;88.44;101882.13;4856042;28;20051;-81
2024/03/18 03:12:30;;;;;;;6.35;3.50;;;-2.50;99.90;;;-4.21;88.75;101866.75;4851953;29;20529;-80
2024/03/18 03:14:56;;;;;;;5.50;3.10;;;-2.50;99.90;;;-4.19;88.84;101869.34;4873161;23;20046;-81
2024/03/18 03:17:25;;;;;;;5.80;3.58;;;-2.50;99.90;;;-4.16;88.97;101870.34;4931194;28;20034;-80
2024/03/18 03:19:56;;;;;;;7.90;3.50;;;-2.40;99.90;;;-4.12;89.35;101868.75;4923750;28;20174;-80
2024/03/18 03:22:22;;;;;;;7.00;4.07;;;-2.40;99.90;;;-4.06;89.48;101874.09;4959287;28;20034;-80
2024/03/18 03:24:48;;;;;;;11.18;3.80;;;-2.30;99.90;;;-4.00;89.81;101873.38;4954929;28;20459;-81
2024/03/18 03:27:22;;;;;;;5.72;3.38;;;-2.30;99.90;;;-3.94;90.02;101865.88;4929319;28;20888;-80
2024/03/18 03:29:48;;;;;;;6.70;3.28;;;-2.20;99.90;;;-3.88;89.78;101870.34;4934847;28;20097;-80
2024/03/18 03:32:15;;;;;;;6.07;3.70;;;-2.20;99.90;;;-3.88;90.03;101866.06;4918515;28;20046;-80
2024/03/18 03:34:41;;;;;;;7.38;3.40;;;-2.20;99.90;;;-3.85;90.51;101861.00;4952674;28;20442;-80
2024/03/18 03:37:07;;;;;;;5.38;3.47;;;-2.10;99.90;;;-3.84;90.34;101864.47;4907791;28;20048;-81
2024/03/18 03:39:36;;;;;;;6.90;3.30;;;-2.10;99.90;;;-3.84;90.51;101859.31;4931117;28;20138;-80
2024/03/18 03:42:05;;;;;;;9.32;3.80;;;-2.10;99.90;;;-3.85;90.33;101860.13;4901878;28;20405;-80
2024/03/18 03:44:32;;;;;;;7.00;3.88;;;-2.20;99.90;;;-3.87;90.69;101865.22;4903339;28;20035;-80
2024/03/18 03:46:58;;;;;;;5.40;3.42;;;-2.10;99.90;;;-3.88;90.43;101860.91;4956110;28;20650;-80
2024/03/18 03:49:32;;;;;;;7.35;4.20;;;-2.10;99.90;;;-3.88;90.38;101863.50;4924300;28;20038;-80
2024/03/18 03:51:58;;;;;;;5.85;3.92;;;-2.20;99.90;;;-3.89;90.60;101859.16;4902404;28;20049;-81
2024/03/18 03:54:25;;;;;;;7.38;4.05;;;-2.20;99.90;;;-3.89;90.74;101863.44;4935543;28;20053;-80
2024/03/18 03:56:51;;;;;;;8.65;4.20;;;-2.20;99.90;;;-3.91;90.61;101860.81;4917277;23;20129;-80
2024/03/18 03:59:23;;;;;;;10.63;4.13;;;-2.20;99.90;;;-3.91;90.46;101853.09;4894449;28;20065;-81
2024/03/18 04:01:49;;;;;;;15.95;4.22;;;-2.20;99.90;;;-3.91;90.44;101850.50;4912371;28;20145;-81
2024/03/18 04:04:14;;;;;;;13.15;4.95;;;-2.20;99.90;;;-3.93;90.88;101852.16;4912805;28;20044;-82
2024/03/18 04:06:41;;;;;;;11.15;4.50;;;-2.20;99.90;;;-3.93;90.71;101847.00;4857049;28;20054;-80
2024/03/18 04:09:07;;;;;;;9.05;4.90;;;-2.20;99.90;;;-3.92;90.34;101854.78;4907068;28;20046;-80
2024/03/18 04:11:33;;;;;;;7.72;3.88;;;-2.20;99.90;;;-3.90;90.96;101846.25;4909142;28;20043;-80
2024/03/18 04:14:04;;;;;;;8.90;4.70;;;-2.20;99.90;;;-3.92;91.03;101844.50;4893916;28;20046;-81
2024/03/18 04:16:30;;;;;;;12.57;4.93;;;-2.20;99.90;;;-3.90;90.77;101851.41;4886197;23;20073;-81
2024/03/18 04:18:56;;;;;;;10.30;4.70;;;-2.20;99.90;;;-3.92;91.15;101841.91;4845423;28;20050;-81
2024/03/18 04:21:22;;;;;;;9.40;4.50;;;-2.20;99.90;;;-3.90;91.30;101843.69;4864454;28;20032;-80
2024/03/18 04:23:48;;;;;;;15.63;4.65;;;-2.20;99.90;;;-3.90;91.16;101843.69;4884328;28;20042;-80
2024/03/18 04:26:19;;;;;;;7.72;4.07;;;-2.20;99.90;;;-3.92;91.47;101848.78;4870797;28;20035;-81
2024/03/18 04:28:45;;;;;;;8.15;4.35;;;-2.20;99.90;;;-3.95;91.20;101844.41;4874841;28;20039;-81
2024/03/18 04:31:15;;;;;;;11.90;4.80;;;-2.20;99.90;;;-3.96;91.36;101845.22;4857975;28;20046;-80
2024/03/18 04:33:41;;;;;;;10.52;4.18;;;-2.20;99.90;;;-3.97;91.70;101843.50;4849710;28;20544;-81
2024/03/18 04:36:09;;;;;;;8.88;4.85;;;-2.20;99.90;;;-3.97;91.49;101842.63;4881666;28;20063;-81
2024/03/18 04:38:40;;;;;;;8.70;4.15;;;-2.20;99.90;;;-3.97;91.48;101846.06;4841409;29;20123;-81
2024/03/18 04:41:05;;;;;;;9.23;4.50;;;-2.30;99.90;;;-3.99;91.63;101839.13;4881867;28;20066;-80
2024/03/18 04:43:31;;;;;;;7.45;3.55;;;-2.30;99.90;;;-4.00;91.25;101845.94;4879040;28;20530;-81
2024/03/18 04:45:57;;;;;;;10.15;3.58;;;-2.30;99.90;;;-4.07;91.62;101846.59;4877516;28;20043;-82
2024/03/18 04:48:23;;;;;;;6.10;3.10;;;-2.40;99.90;;;-4.17;90.82;101839.41;4880140;28;20035;-81
2024/03/18 04:50:49;;;;;;;5.20;3.03;;;-2.50;99.90;;;-4.27;91.16;101829.69;4897299;28;20115;-81
2024/03/18 04:53:24;;;;;;;9.77;3.40;;;-2.50;99.90;;;-4.35;90.40;101832.84;4868286;28;20487;-81
2024/03/18 04:55:50;;;;;;;6.50;3.50;;;-2.60;99.90;;;-4.44;90.80;101832.56;4843187;28;20048;-81
2024/03/18 04:58:16;;;;;;;7.28;4.00;;;-2.70;99.90;;;-4.48;90.33;101830.72;4877156;28;20094;-81
2024/03/18 05:00:41;;;;;;;9.00;3.90;;;-2.70;99.90;;;-4.51;90.55;101828.06;4883754;28;20047;-80
2024/03/18 05:03:13;;;;;;;9.15;4.35;;;-2.80;99.90;;;-4.54;90.32;101823.66;4858766;29;20482;-81
2024/03/18 05:05:39;;;;;;;10.50;4.90;;;-2.80;99.90;;;-4.49;90.16;101828.09;4863993;28;20032;-81
2024/03/18 05:08:05;;;;;;;8.50;5.10;;;-2.80;99.90;;;-4.45;90.70;101835.97;4842337;28;20044;-82
2024/03/18 05:10:31;;;;;;;9.82;5.03;;;-2.70;99.90;;;-4.38;90.89;101829.34;4894790;28;20103;-81
2024/03/18 05:12:59;;;;;;;11.10;5.18;;;-2.60;99.90;;;-4.31;91.10;101835.53;4846247;28;20528;-81
2024/03/18 05:15:27;;;;;;;14.55;5.20;;;-2.60;99.90;;;-4.28;91.16;101838.19;4872651;28;20036;-81
2024/03/18 05:17:53;;;;;;;6.05;3.72;;;-2.60;99.90;;;-4.26;91.30;101839.13;4867061;28;20048;-81
2024/03/18 05:20:19;;;;;;;7.57;3.63;;;-2.60;99.90;;;-4.30;91.09;101845.84;4887979;28;20046;-82
2024/03/18 05:22:45;;;;;;;4.70;3.10;;;-2.60;99.90;;;-4.39;91.17;101841.28;4875734;28;20042;-81
2024/03/18 05:25:13;;;;;;;7.53;3.50;;;-2.70;99.90;;;-4.46;90.57;101836.78;4888847;28;20035;-80
2024/03/18 05:27:44;;;;;;;9.00;3.63;;;-2.70;99.90;;;-4.48;90.67;101842.72;4860528;28;20458;-82
2024/03/18 05:30:11;;;;;;;7.93;4.38;;;-2.70;99.90;;;-4.49;91.01;101833.22;4876788;28;20039;-80
2024/03/18 05:32:37;;;;;;;11.20;4.70;;;-2.70;99.90;;;-4.46;90.98;101833.34;4863457;28;20167;-82
2024/03/18 05:35:04;;;;;;;9.45;4.57;;;-2.70;99.90;;;-4.42;90.68;101828.34;4907888;28;20053;-81
2024/03/18 05:37:37;;;;;;;8.32;5.18;;;-2.70;99.90;;;-4.34;91.34;101826.91;4876421;28;20032;-81
2024/03/18 05:40:05;;;;;;;15.50;5.40;;;-2.60;99.90;;;-4.25;91.51;101833.19;4859298;28;20526;-81
2024/03/18 05:42:34;;;;;;;10.80;5.07;;;-2.50;99.90;;;-4.19;91.15;101828.19;4869586;28;20127;-82
2024/03/18 05:45:08;;;;;;;13.55;5.28;;;-2.50;99.90;;;-4.14;91.79;101818.94;4861889;28;20768;-82
2024/03/18 05:47:34;;;;;;;10.90;4.90;;;-2.40;99.90;;;-4.09;92.15;101826.81;4870515;28;20036;-80
2024/03/18 05:50:00;;;;;;;12.55;4.72;;;-2.40;99.90;;;-4.01;92.11;101825.34;4888095;28;20383;-81
2024/03/18 05:52:49;;;;;;;10.68;4.82;;;-2.30;99.90;;;-3.99;91.73;101824.56;4825638;29;20047;-82
2024/03/18 05:55:17;;;;;;;6.30;3.60;;;-2.30;99.90;;;-3.99;92.41;101832.28;4830406;28;20136;-82
2024/03/18 05:57:43;;;;;;;9.15;4.65;;;-2.30;99.90;;;-3.96;92.26;101831.50;4849885;29;21196;-81
2024/03/18 06:00:12;;;;;;;10.48;4.60;;;-2.30;99.90;;;-3.94;92.04;101830.72;4862979;28;20067;-82
2024/03/18 06:02:40;;;;;;;7.00;4.60;;;-2.20;99.90;;;-3.90;92.19;101831.69;4865296;28;20039;-82
2024/03/18 06:05:06;;;;;;;15.68;4.40;;;-2.20;99.90;;;-3.88;92.70;101839.47;4881310;28;20396;-82
2024/03/18 06:07:32;;;;;;;7.82;4.00;;;-2.20;99.90;;;-3.90;92.37;101836.84;4870047;28;20507;-81
2024/03/18 06:09:58;;;;;;;12.60;3.75;;;-2.20;99.90;;;-3.96;91.94;101840.06;4897716;28;20067;-82
2024/03/18 06:12:27;;;;;;;5.82;3.20;;;-2.30;99.90;;;-4.01;92.01;101848.50;4893087;28;20040;-81
2024/03/18 06:15:00;;;;;;;12.75;4.10;;;-2.30;99.90;;;-4.07;91.97;101838.88;4858631;28;20048;-82
2024/03/18 06:17:26;;;;;;;10.73;4.60;;;-2.40;99.90;;;-4.07;91.76;101838.00;4881038;28;20042;-81
2024/03/18 06:19:58;;;;;;;8.90;4.43;;;-2.30;99.90;;;-4.04;91.72;101838.09;4878131;28;20515;-82
2024/03/18 06:22:26;;;;;;;11.63;5.25;;;-2.30;99.90;;;-4.01;91.92;101833.94;4866655;28;20035;-81
2024/03/18 06:27:37;;;;;;;14.35;5.88;;;-2.20;99.90;;;-3.82;92.27;101839.63;4869484;28;20058;-82
2024/03/18 06:30:12;;;;;;;15.57;5.30;;;-2.10;99.90;;;-3.72;91.80;101846.78;4886338;28;20478;-82
2024/03/18 06:32:38;;;;;;;19.27;6.22;;;-2.00;99.90;;;-3.59;92.32;101843.75;4891342;28;20371;-83
2024/03/18 06:35:04;;;;;;;14.70;5.88;;;-1.90;99.90;;;-3.46;92.50;101855.28;4877927;28;20043;-82
2024/03/18 06:37:36;;;;;;;15.85;5.90;;;-1.80;99.90;;;-3.33;92.42;101848.78;4881263;28;20091;-83
2024/03/18 06:40:08;;;;;;;19.35;6.30;;;-1.70;99.90;;;-3.19;92.87;101849.19;4853121;28;20044;-82
2024/03/18 06:42:39;;;;;;;15.63;6.20;;;-1.50;99.90;;;-3.05;92.73;101857.28;4869601;29;20036;-82
2024/03/18 06:45:07;;;;;;;17.00;6.20;;;-1.40;99.90;;;-2.92;93.24;101854.19;4859679;29;20039;-82
2024/03/18 06:47:33;;;;;;;15.02;6.32;;;-1.30;99.90;;;-2.80;93.15;101846.81;4843482;28;20067;-82
2024/03/18 06:49:59;;;;;;;12.77;5.30;;;-1.10;99.90;;;-2.63;93.28;101849.81;4870159;28;20044;-81
2024/03/18 06:52:25;;;;;;;10.00;4.75;;;-1.00;99.90;;;-2.51;93.11;101851.81;4868746;28;20182;-83
2024/03/18 06:54:58;;;;;;;11.40;6.00;;;-0.90;99.90;;;-2.45;93.46;101846.81;4835648;28;20037;-82
2024/03/18 06:57:30;;;;;;;11.70;5.20;;;-0.80;99.90;;;-2.34;93.65;101854.81;4863983;28;20060;-83
2024/03/18 07:00:06;;;;;;;11.93;6.25;;;-0.70;99.90;;;-2.22;93.44;101856.84;4864976;29;20567;-83
2024/03/18 07:02:32;;;;;;;;;;;-0.60;99.90;;;-2.09;93.68;101854.56;4880866;28;20052;-82
2024/03/18 07:05:07;;;;;;;24.30;6.72;;;-0.50;99.90;;;-1.97;94.02;101855.69;4864243;28;19982;-83
2024/03/18 07:07:33;;;;;;;18.17;7.73;;;-0.40;99.90;;;-1.86;93.90;101854.22;4874954;28;20536;-83
2024/03/18 07:09:58;;;;;;;28.00;9.32;;;-0.20;99.90;;;-1.71;93.76;101858.84;4860736;28;20044;-84
2024/03/18 07:12:32;;;;;;;27.27;9.68;;;-0.10;99.90;;;-1.60;94.20;101851.34;4812642;28;20036;-83
2024/03/18 07:14:57;;;;;;;33.78;10.48;;;0.00;99.90;;;-1.42;94.35;101850.88;4871492;28;20055;-83
2024/03/18 07:17:23;;;;;;;38.95;11.15;;;0.20;99.90;;;-1.24;94.37;101853.81;4868773;28;20169;-84
2024/03/18 07:19:49;;;;;;;29.10;9.90;;;0.40;99.90;;;-1.00;94.55;101850.84;4842799;29;20127;-84
2024/03/18 07:22:15;;;;;;;38.20;11.02;;;0.60;99.90;;;-0.80;94.64;101847.75;4835215;28;20042;-84
2024/03/18 07:24:41;;;;;;;28.38;9.00;;;0.80;99.90;;;-0.55;94.61;101854.22;4853839;28;20040;-83
2024/03/18 07:27:15;;;;;;;30.38;8.93;;;1.00;99.90;;;-0.32;94.73;101860.66;4866165;28;20075;-83
2024/03/18 07:29:41;;;;;;;28.67;8.90;;;1.20;99.90;;;-0.12;94.65;101855.78;4832050;28;20040;-83
2024/03/18 07:32:08;;;;;;;16.85;7.20;;;1.40;99.90;;;0.08;94.64;101863.00;4866389;28;20056;-83
2024/03/18 07:34:43;;;;;;;27.83;7.78;;;1.60;99.90;;;0.26;94.08;101867.56;4860483;28;20095;-83
2024/03/18 07:37:09;;;;;;;24.85;7.85;;;1.70;99.90;;;0.40;93.72;101861.72;4869877;28;20044;-83
2024/03/18 07:39:35;;;;;;;24.88;8.60;;;1.90;99.90;;;0.57;93.66;101872.31;4856102;28;20047;-83
2024/03/18 07:42:11;;;;;;;21.20;6.93;;;2.10;99.90;;;0.73;93.16;101859.53;4883260;28;20040;-83
2024/03/18 07:44:38;;;;;;;23.20;7.30;;;2.30;99.90;;;0.96;92.74;101868.47;4865712;28;20044;-83
2024/03/18 07:47:04;;;;;;;16.55;6.05;;;2.50;99.90;;;1.08;92.08;101867.75;4855232;28;20040;-83
2024/03/18 07:49:38;;;;;;;18.65;5.68;;;2.60;99.90;;;1.17;91.07;101872.16;4826621;29;20036;-83
2024/03/18 07:52:07;;;;;;;16.80;5.97;;;;;;;1.23;90.13;101872.19;4865798;28;20040;-83
2024/03/18 07:54:33;;;;;;;16.95;5.18;;;2.70;99.90;;;1.34;89.57;101870.59;4842152;28;20079;-84
2024/03/18 07:57:06;;;;;;;19.83;5.75;;;2.80;99.90;;;1.52;89.23;101872.50;4848799;29;20043;-84
2024/03/18 07:59:32;;;;;;;14.38;5.63;;;3.00;99.90;;;1.68;88.89;101877.81;4860664;28;20165;-82
2024/03/18 08:02:01;;;;;;;16.83;5.65;;;3.20;99.90;;;1.85;88.29;101879.69;4828019;29;20040;-85
2024/03/18 08:04:36;;;;;;;23.13;5.70;;;3.30;99.90;;;2.08;88.10;101885.94;4858755;28;20064;-85
2024/03/18 08:07:03;;;;;;;14.87;5.20;;;3.50;99.90;;;2.24;87.71;101885.16;4846463;28;20131;-84
2024/03/18 08:09:40;;;;;;;14.85;5.32;;;3.70;99.90;;;2.37;87.20;101884.38;4829487;28;20088;-84
2024/03/18 08:12:06;;;;;;;13.25;4.18;;;;;;;2.53;86.92;101887.06;4831112;28;20396;-83
2024/03/18 08:14:36;;;;;;;10.88;3.35;;;4.00;99.90;;;2.66;85.81;101887.13;4824811;28;20032;-85
2024/03/18 08:17:05;;;;;;;11.00;3.53;;;;;;;2.71;84.07;101883.69;4844658;29;20063;-85
2024/03/18 08:19:31;;;;;;;7.30;3.05;;;4.20;99.90;;;2.75;82.70;101880.25;4847722;28;20032;-86
2024/03/18 08:22:00;;;;;;;9.98;2.95;;;4.10;99.90;;;2.84;82.30;101883.72;4874741;28;20048;-86
2024/03/18 08:24:35;;;;;;;12.50;3.15;;;4.30;99.90;;;2.96;81.97;101888.13;4851243;28;20228;-86
2024/03/18 08:27:01;;;;;;;6.03;2.50;;;;;;;3.12;81.53;101885.56;4852459;29;20122;-87
2024/03/18 08:29:38;;;;;;;;;;;;;;;;;;;;;
2024/03/18 08:32:20;;;;;;;5.53;2.20;;;;;;;3.33;79.96;101885.63;4850933;29;20546;-87
2024/03/18 08:34:46;;;;;;;12.45;2.42;;;4.70;99.90;;;3.35;78.39;101891.69;4820483;28;20052;-86
2024/03/18 08:37:24;;;;;;;8.88;2.40;;;;;;;3.48;78.69;101900.41;4890290;29;20067;-86
2024/03/18 08:39:54;;;;;;;8.25;2.28;;;;;;;3.53;78.27;101895.19;4886143;28;20047;-86
2024/03/18 08:42:44;;;;;;;5.47;2.53;;;;;;;3.54;77.43;101900.38;4910670;29;20045;-88
2024/03/18 08:45:13;;;;;;;6.40;2.67;;;5.00;99.90;;;3.59;77.57;101893.47;4844724;29;20428;-86
2024/03/18 08:48:07;;;;;;;4.22;2.13;;;5.00;99.90;;;3.67;77.30;101901.28;4820610;29;20145;-87
2024/03/18 08:50:33;;;;;;;5.85;2.10;;;;;;;3.73;76.35;101895.22;4819737;29;20037;-86
2024/03/18 08:53:23;;;;;;;8.30;2.47;;;;;;;3.84;76.49;101902.16;4820513;29;20096;-87
2024/03/18 08:59:02;;;;;;;6.07;2.45;;;;;;;4.04;76.50;101898.66;4713564;29;20037;-90
2024/03/18 09:01:28;;;;;;;3.55;1.27;;;;;;;4.10;76.04;101901.28;4722791;30;20054;-87
2024/03/18 09:04:05;;;;;;;2.83;1.13;;;;;;;4.15;75.05;101909.97;4739236;29;20053;-88
2024/03/18 09:06:33;;;;;;;3.30;1.75;;;;;;;4.16;73.33;101900.41;4721459;29;20036;-87
2024/03/18 09:09:26;;;;;;;4.03;1.05;;;;;;;4.11;72.36;101909.09;4711017;29;20057;-88
2024/03/18 09:12:03;;;;;;;3.42;0.90;;;4.30;99.90;;;3.92;69.56;101923.00;4706202;29;20051;-88
2024/03/18 09:14:32;;;;;;;4.13;0.88;;;;;;;3.81;69.94;101914.31;4684831;30;21472;-87
2024/03/18 09:17:37;;;;;;;;;;;;;;;;;;;;;
2024/03/18 09:20:09;;;;;;;4.35;1.10;;;5.20;99.90;;;3.68;69.96;101918.66;4905231;28;20686;-86
2024/03/18 09:23:13;;;;;;;4.18;1.10;;;;;;;3.70;70.82;101915.19;4909873;28;20045;-86
2024/03/18 09:25:42;;;;;;;6.65;1.30;;;;;;;3.72;70.81;101912.59;4856411;29;20054;-86
2024/03/18 09:28:54;;;;;;;3.30;1.45;;;7.70;99.90;;;3.76;71.58;101901.31;4828993;29;20388;-87
2024/03/18 09:32:21;;;;;;;2.95;1.40;;;5.20;99.90;;;3.73;71.64;101901.28;4853499;28;20051;-87
2024/03/18 09:35:26;;;;;;;;;;;;;;;;;;;;;
2024/03/18 09:42:17;;;;;;;5.13;1.63;;;5.60;99.90;;;4.29;72.56;101907.34;4837087;29;20064;-87
2024/03/18 09:45:24;;;;;;;3.47;1.15;;;;;;;4.34;71.34;101904.72;4752789;29;20181;-89
2024/03/18 09:50:44;;;;;;;3.63;1.20;;;;;;;4.64;71.68;101907.22;4785580;29;20099;-86
2024/03/18 09:54:00;;;;;;;4.75;1.63;;;6.20;99.90;;;5.03;71.97;101900.16;4793923;29;20101;-88
2024/03/18 09:56:34;;;;;;;5.40;1.60;;;;;;;5.52;70.67;101899.84;4847938;23;20047;-86
2024/03/18 09:59:15;;;;;;;5.45;1.67;;;;;;;5.71;68.51;101910.19;4854178;29;20048;-86
2024/03/18 10:01:54;;;;;;;;;;;;;;;;;;;;;
2024/03/18 10:04:59;;;;;;;4.47;1.45;;;7.20;99.90;;;5.92;65.73;101932.69;4854039;28;20123;-86
2024/03/18 10:07:50;;;;;;;;;;;;;;;;;;;;;
2024/03/18 10:10:32;;;;;;;3.45;1.50;;;;;;;5.57;65.16;101925.06;4874331;28;20092;-86
2024/03/18 10:13:24;;;;;;;5.03;1.60;;;;;;;5.35;65.53;101923.44;4853594;28;20037;-88
2024/03/18 10:15:53;;;;;;;6.47;2.17;;;;;;;5.25;65.74;101915.72;4889494;23;20051;-87
2024/03/18 10:21:55;;;;;;;7.40;1.88;;;6.60;99.90;;;5.16;65.35;101918.34;4905308;28;20142;-86
2024/03/18 10:24:33;;;;;;;6.13;1.50;;;;;;;5.19;64.93;101918.34;4877753;28;20067;-92
2024/03/18 10:27:02;;;;;;;9.10;3.67;;;;;;;5.14;65.53;101921.84;4887780;28;20075;-88
2024/03/18 10:29:54;;;;;;;12.38;6.25;;;;;;;5.22;65.75;101921.78;4904029;28;20417;-85
2024/03/18 10:32:46;;;;;;;;;;;;;;;;;;;;;
2024/03/18 10:35:34;;;;;;;6.38;1.75;;;6.80;99.90;;;5.40;63.07;101933.00;4894192;23;20625;-86
2024/03/18 10:39:15;;;;;;;3.55;1.40;;;6.80;99.90;;;5.46;63.71;101932.97;4914923;28;20043;-88
2024/03/18 10:42:25;;;;;;;4.80;1.33;;;6.80;99.90;;;5.60;64.42;101915.47;4871420;29;20076;-87
2024/03/18 10:45:25;;;;;;;3.60;1.35;;;7.00;99.90;;;5.82;63.90;101928.38;4838023;29;20899;-87
2024/03/18 10:48:03;;;;;;;3.25;1.17;;;;;;;6.00;61.72;101946.56;4886844;29;20054;-90
2024/03/18 10:50:43;;;;;;;4.90;1.27;;;7.40;99.90;;;6.32;62.36;101946.28;4904549;29;20045;-87
2024/03/18 10:53:25;;;;;;;6.30;1.33;;;;;;;6.67;61.94;101952.03;4875679;29;20038;-88
2024/03/18 10:56:24;;;;;;;6.15;1.05;;;7.90;99.90;;;6.53;60.11;101954.81;4903332;23;20048;-87
2024/03/18 10:59:12;;;;;;;2.75;1.17;;;;;;;6.85;60.70;101964.09;4878596;29;20048;-87
2024/03/18 11:01:44;;;;;;;2.28;0.93;;;8.10;99.90;;;6.65;58.33;101977.38;4850485;29;20094;-90
2024/03/18 11:04:41;;;;;;;5.68;1.73;;;8.20;99.90;;;6.83;59.09;101981.56;4856173;29;20048;-90